createdAt,value
2022-11-23T00:00:46.871Z,7.97
2022-11-23T00:03:16.715Z,5.80
2022-11-23T00:05:44.463Z,5.20
2022-11-23T00:08:12.316Z,3.15
2022-11-23T00:10:40.138Z,9.48
2022-11-23T00:13:07.940Z,4.68
2022-11-23T00:15:37.159Z,5.22
2022-11-23T00:18:05.033Z,3.72
2022-11-23T00:20:32.841Z,5.45
2022-11-23T00:23:00.768Z,4.47
2022-11-23T00:25:29.457Z,8.27
2022-11-23T00:27:57.236Z,7.60
2022-11-23T00:30:25.026Z,4.65
2022-11-23T00:32:55.769Z,3.03
2022-11-23T00:35:24.473Z,4.55
2022-11-23T00:37:52.367Z,4.68
2022-11-23T00:40:20.249Z,3.33
2022-11-23T00:42:48.220Z,5.78
2022-11-23T00:45:16.173Z,6.38
2022-11-23T00:47:43.892Z,4.97
2022-11-23T00:50:13.094Z,3.35
2022-11-23T00:52:40.869Z,7.57
2022-11-23T00:55:09.647Z,6.80
2022-11-23T00:57:37.555Z,4.97
2022-11-23T01:00:07.058Z,4.57
2022-11-23T01:02:36.753Z,4.45
2022-11-23T01:05:05.788Z,5.43
2022-11-23T01:07:35.123Z,6.60
2022-11-23T01:10:05.058Z,2.78
2022-11-23T01:12:34.293Z,3.53
2022-11-23T01:15:02.247Z,6.68
2022-11-23T01:17:29.996Z,6.53
2022-11-23T01:19:58.041Z,4.95
2022-11-23T01:22:25.743Z,7.18
2022-11-23T01:24:54.893Z,4.82
2022-11-23T01:27:22.674Z,5.03
2022-11-23T01:29:51.741Z,4.57
2022-11-23T01:32:20.450Z,5.10
2022-11-23T01:34:48.410Z,4.80
2022-11-23T01:37:16.197Z,4.35
2022-11-23T01:39:45.697Z,4.03
2022-11-23T01:42:17.915Z,3.60
2022-11-23T01:44:46.072Z,4.85
2022-11-23T01:47:13.978Z,4.47
2022-11-23T01:49:44.837Z,7.10
2022-11-23T01:52:17.008Z,5.93
2022-11-23T01:54:47.753Z,5.00
2022-11-23T01:57:20.334Z,6.20
2022-11-23T01:59:49.582Z,4.70
2022-11-23T02:02:18.421Z,5.95
2022-11-23T02:04:48.859Z,4.45
2022-11-23T02:07:18.698Z,8.07
2022-11-23T02:09:48.261Z,5.15
2022-11-23T02:12:17.809Z,4.43
2022-11-23T02:14:46.736Z,5.25
2022-11-23T02:17:14.979Z,3.30
2022-11-23T02:19:55.025Z,5.07
2022-11-23T02:22:29.264Z,3.53
2022-11-23T02:24:57.470Z,3.58
2022-11-23T02:27:28.479Z,3.47
2022-11-23T02:30:01.279Z,4.13
2022-11-23T02:32:30.047Z,3.83
2022-11-23T02:34:57.891Z,4.07
2022-11-23T02:37:26.337Z,2.50
2022-11-23T02:39:55.417Z,4.07
2022-11-23T02:42:24.776Z,5.40
2022-11-23T02:45:00.728Z,5.03
2022-11-23T02:47:28.608Z,4.80
2022-11-23T02:49:56.692Z,4.13
2022-11-23T02:52:24.614Z,5.20
2022-11-23T02:54:52.471Z,3.80
2022-11-23T02:57:20.289Z,3.47
2022-11-23T02:59:48.140Z,4.25
2022-11-23T03:02:17.284Z,5.18
2022-11-23T03:04:45.065Z,6.05
2022-11-23T03:07:13.160Z,7.60
2022-11-23T03:09:41.176Z,2.17
2022-11-23T03:12:10.243Z,8.10
2022-11-23T03:14:38.695Z,8.05
2022-11-23T03:17:06.984Z,6.32
2022-11-23T03:19:43.347Z,9.25
2022-11-23T03:22:12.564Z,4.63
2022-11-23T03:24:40.485Z,7.47
2022-11-23T03:27:11.296Z,5.00
2022-11-23T03:29:41.647Z,5.55
2022-11-23T03:32:15.436Z,5.72
2022-11-23T03:34:48.348Z,3.45
2022-11-23T03:37:18.548Z,4.60
2022-11-23T03:39:47.689Z,3.72
2022-11-23T03:42:24.585Z,6.95
2022-11-23T03:44:52.465Z,7.57
2022-11-23T03:47:20.432Z,5.00
2022-11-23T03:49:49.748Z,6.63
2022-11-23T03:52:17.819Z,6.93
2022-11-23T03:54:47.011Z,4.65
2022-11-23T03:57:15.405Z,9.63
2022-11-23T03:59:43.336Z,5.70
2022-11-23T04:02:11.791Z,3.75
2022-11-23T04:04:48.828Z,2.53
2022-11-23T04:07:47.350Z,4.22
2022-11-23T04:10:15.848Z,9.13
2022-11-23T04:13:12.949Z,4.15
2022-11-23T04:15:40.823Z,8.15
2022-11-23T04:18:09.756Z,6.15
2022-11-23T04:20:41.552Z,7.22
2022-11-23T04:23:13.242Z,7.05
2022-11-23T04:25:42.111Z,6.38
2022-11-23T04:28:11.083Z,6.03
2022-11-23T04:30:39.542Z,8.57
2022-11-23T04:33:07.884Z,11.70
2022-11-23T04:35:38.010Z,6.65
2022-11-23T04:38:07.213Z,6.18
2022-11-23T04:40:35.009Z,6.78
2022-11-23T04:43:04.471Z,9.38
2022-11-23T04:45:39.499Z,6.65
2022-11-23T04:48:11.048Z,7.60
2022-11-23T04:50:40.725Z,5.55
2022-11-23T04:53:11.749Z,6.75
2022-11-23T04:55:47.520Z,5.65
2022-11-23T04:58:16.725Z,4.63
2022-11-23T05:00:44.726Z,10.30
2022-11-23T05:03:15.902Z,5.35
2022-11-23T05:05:44.616Z,6.35
2022-11-23T05:08:13.788Z,13.10
2022-11-23T05:10:56.019Z,13.93
2022-11-23T05:13:25.671Z,9.32
2022-11-23T05:15:53.538Z,18.52
2022-11-23T05:18:26.397Z,14.70
2022-11-23T05:20:54.588Z,9.30
2022-11-23T05:23:24.277Z,9.05
2022-11-23T05:25:54.429Z,4.63
2022-11-23T05:28:40.701Z,5.68
2022-11-23T05:31:12.225Z,4.85
2022-11-23T05:33:40.477Z,4.90
2022-11-23T05:36:13.645Z,4.13
2022-11-23T05:38:44.653Z,3.33
2022-11-23T05:41:22.191Z,6.18
2022-11-23T05:43:54.628Z,8.25
2022-11-23T05:46:26.936Z,7.65
2022-11-23T05:48:55.375Z,5.70
2022-11-23T05:51:24.680Z,5.57
2022-11-23T05:53:54.647Z,5.70
2022-11-23T05:56:40.573Z,4.70
2022-11-23T05:59:17.981Z,5.78
2022-11-23T06:01:51.271Z,4.50
2022-11-23T06:04:26.098Z,5.57
2022-11-23T06:06:57.423Z,4.97
2022-11-23T06:09:26.773Z,6.78
2022-11-23T06:11:58.055Z,5.75
2022-11-23T06:14:26.294Z,4.97
2022-11-23T06:16:54.771Z,7.20
2022-11-23T06:19:48.564Z,7.53
2022-11-23T06:22:16.474Z,6.68
2022-11-23T06:25:03.101Z,5.13
2022-11-23T06:27:42.243Z,6.38
2022-11-23T06:30:17.664Z,5.47
2022-11-23T06:32:46.088Z,4.95
2022-11-23T06:35:13.977Z,5.13
2022-11-23T06:37:43.473Z,4.70
2022-11-23T06:40:13.544Z,5.82
2022-11-23T06:42:42.520Z,6.05
2022-11-23T06:45:24.968Z,6.25
2022-11-23T06:47:56.097Z,4.55
2022-11-23T06:50:24.217Z,7.85
2022-11-23T06:52:56.312Z,8.07
2022-11-23T06:55:34.196Z,7.35
2022-11-23T06:58:02.438Z,8.48
2022-11-23T07:00:30.393Z,7.43
2022-11-23T07:02:58.430Z,6.57
2022-11-23T07:05:26.330Z,8.30
2022-11-23T07:07:55.166Z,5.07
2022-11-23T07:10:27.382Z,8.93
2022-11-23T07:13:06.305Z,7.30
2022-11-23T07:15:37.124Z,7.93
2022-11-23T07:18:05.875Z,6.63
2022-11-23T07:20:35.486Z,6.65
2022-11-23T07:23:08.864Z,7.45
2022-11-23T07:25:38.959Z,7.50
2022-11-23T07:28:09.281Z,13.65
2022-11-23T07:30:37.518Z,6.65
2022-11-23T07:33:08.381Z,6.13
2022-11-23T07:35:39.170Z,6.50
2022-11-23T07:38:07.928Z,9.52
2022-11-23T07:40:37.107Z,9.00
2022-11-23T07:43:06.527Z,12.57
2022-11-23T07:45:36.721Z,7.85
2022-11-23T07:48:08.536Z,4.53
2022-11-23T07:50:37.986Z,7.63
2022-11-23T07:53:07.557Z,9.48
2022-11-23T07:55:35.932Z,8.05
2022-11-23T07:58:04.826Z,18.88
2022-11-23T08:00:32.689Z,14.63
2022-11-23T08:03:26.534Z,11.90
2022-11-23T08:05:49.726Z,9.93
2022-11-23T08:08:17.546Z,10.18
2022-11-23T08:10:51.407Z,13.07
2022-11-23T08:15:54.382Z,8.02
2022-11-23T08:18:25.168Z,7.07
2022-11-23T08:20:52.954Z,8.52
2022-11-23T08:23:21.692Z,13.63
2022-11-23T08:25:49.663Z,10.30
2022-11-23T08:28:17.884Z,5.07
2022-11-23T08:30:45.772Z,9.55
2022-11-23T08:33:14.787Z,6.82
2022-11-23T08:35:44.876Z,10.15
2022-11-23T08:38:12.870Z,10.63
2022-11-23T08:40:40.671Z,9.57
2022-11-23T08:43:08.594Z,9.23
2022-11-23T08:45:36.432Z,10.13
2022-11-23T08:48:05.298Z,12.02
2022-11-23T08:50:34.349Z,8.55
2022-11-23T08:53:03.883Z,9.80
2022-11-23T08:55:31.646Z,10.32
2022-11-23T08:57:59.944Z,6.28
2022-11-23T09:00:28.821Z,9.80
2022-11-23T09:02:58.824Z,10.82
2022-11-23T09:05:26.786Z,14.27
2022-11-23T09:07:55.239Z,10.57
2022-11-23T09:10:24.506Z,11.95
2022-11-23T09:12:52.750Z,7.68
2022-11-23T09:15:21.454Z,10.25
2022-11-23T09:17:49.228Z,7.20
2022-11-23T09:20:17.406Z,8.75
2022-11-23T09:22:45.544Z,4.32
2022-11-23T09:25:13.646Z,11.20
2022-11-23T09:27:42.857Z,11.88
2022-11-23T09:30:12.139Z,8.70
2022-11-23T09:32:39.968Z,4.53
2022-11-23T09:35:08.726Z,8.98
2022-11-23T09:37:36.944Z,7.20
2022-11-23T09:40:05.348Z,9.45
2022-11-23T09:42:59.288Z,8.93
2022-11-23T09:45:35.726Z,7.88
2022-11-23T09:48:25.824Z,10.75
2022-11-23T09:51:00.608Z,9.10
2022-11-23T09:53:34.675Z,8.80
2022-11-23T09:56:02.979Z,9.45
2022-11-23T09:58:40.675Z,10.00
2022-11-23T10:01:13.046Z,5.97
2022-11-23T10:03:48.284Z,10.93
2022-11-23T10:06:20.920Z,8.88
2022-11-23T10:09:13.520Z,5.90
2022-11-23T10:12:09.667Z,8.85
2022-11-23T10:14:54.982Z,10.48
2022-11-23T10:20:16.703Z,8.10
2022-11-23T10:22:49.280Z,9.35
2022-11-23T10:25:18.964Z,9.98
2022-11-23T10:27:49.609Z,6.68
2022-11-23T10:30:20.498Z,12.68
2022-11-23T10:32:53.355Z,9.95
2022-11-23T10:35:28.246Z,8.45
2022-11-23T10:38:03.708Z,7.97
2022-11-23T10:40:31.467Z,9.30
2022-11-23T10:43:02.802Z,9.68
2022-11-23T10:45:32.023Z,6.88
2022-11-23T10:48:01.790Z,12.35
2022-11-23T10:50:33.481Z,9.93
2022-11-23T10:53:13.716Z,10.77
2022-11-23T10:55:49.165Z,4.80
2022-11-23T10:58:27.586Z,5.60
2022-11-23T11:01:05.040Z,8.80
2022-11-23T11:03:35.577Z,9.38
2022-11-23T11:06:09.535Z,7.35
2022-11-23T11:08:49.650Z,10.05
2022-11-23T11:11:25.350Z,3.85
2022-11-23T11:14:03.827Z,6.43
2022-11-23T11:16:35.288Z,4.90
2022-11-23T11:19:23.925Z,10.02
2022-11-23T11:21:51.734Z,4.57
2022-11-23T11:24:22.780Z,5.00
2022-11-23T11:26:53.177Z,5.63
2022-11-23T11:29:38.369Z,9.60
2022-11-23T11:32:14.840Z,10.27
2022-11-23T11:37:21.612Z,5.63
2022-11-23T11:42:22.237Z,4.88
2022-11-23T11:44:56.219Z,6.03
2022-11-23T11:47:31.119Z,6.03
2022-11-23T11:50:02.531Z,8.02
2022-11-23T11:52:37.211Z,6.97
2022-11-23T11:55:12.850Z,4.03
2022-11-23T12:00:16.457Z,9.05
2022-11-23T12:02:59.431Z,7.63
2022-11-23T12:05:35.092Z,6.22
2022-11-23T12:08:07.681Z,4.22
2022-11-23T12:10:41.732Z,7.13
2022-11-23T12:13:14.232Z,5.00
2022-11-23T12:15:49.891Z,6.25
2022-11-23T12:18:49.907Z,7.07
2022-11-23T12:21:29.812Z,7.32
2022-11-23T12:24:07.997Z,4.68
2022-11-23T12:26:46.203Z,5.15
2022-11-23T12:29:42.848Z,4.63
2022-11-23T12:32:22.351Z,6.88
2022-11-23T12:35:20.972Z,4.93
2022-11-23T12:38:03.942Z,6.30
2022-11-23T12:40:52.395Z,5.97
2022-11-23T12:43:24.972Z,4.32
2022-11-23T12:46:14.491Z,5.82
2022-11-23T12:49:05.302Z,4.45
2022-11-23T12:51:41.225Z,4.72
2022-11-23T12:54:26.475Z,6.72
2022-11-23T12:59:41.023Z,5.97
2022-11-23T13:02:25.130Z,9.52
2022-11-23T13:05:20.289Z,5.85
2022-11-23T13:08:22.393Z,3.17
2022-11-23T13:11:00.449Z,7.68
2022-11-23T13:13:42.581Z,7.15
2022-11-23T13:16:41.422Z,4.82
2022-11-23T13:19:41.407Z,3.55
2022-11-23T13:22:12.583Z,5.78
2022-11-23T13:25:02.163Z,4.78
2022-11-23T13:27:43.907Z,2.58
2022-11-23T13:30:45.600Z,4.72
2022-11-23T13:33:34.255Z,4.85
2022-11-23T13:36:10.403Z,5.57
2022-11-23T13:38:45.721Z,4.47
2022-11-23T13:41:55.039Z,7.90
2022-11-23T13:44:27.515Z,5.45
2022-11-23T13:47:06.625Z,4.65
2022-11-23T13:49:40.833Z,2.83
2022-11-23T13:52:28.171Z,3.13
2022-11-23T13:54:59.778Z,6.90
2022-11-23T13:57:30.597Z,3.03
2022-11-23T14:00:30.956Z,7.50
2022-11-23T14:03:32.387Z,4.85
2022-11-23T14:06:04.222Z,2.05
2022-11-23T14:08:35.088Z,3.97
2022-11-23T14:11:12.901Z,8.18
2022-11-23T14:13:46.514Z,4.28
2022-11-23T14:16:24.380Z,4.72
2022-11-23T14:19:02.654Z,5.28
2022-11-23T14:21:41.224Z,8.93
2022-11-23T14:24:45.779Z,6.45
2022-11-23T14:30:37.244Z,5.80
2022-11-23T14:33:17.805Z,6.15
2022-11-23T14:35:53.363Z,6.97
2022-11-23T14:38:55.078Z,12.57
2022-11-23T14:41:25.681Z,3.97
2022-11-23T14:43:55.216Z,6.57
2022-11-23T14:46:25.474Z,6.82
2022-11-23T14:49:03.580Z,4.85
2022-11-23T14:51:32.311Z,5.95
2022-11-23T14:54:03.667Z,7.40
2022-11-23T14:56:35.047Z,5.53
2022-11-23T14:59:05.667Z,7.13
2022-11-23T15:01:34.750Z,4.68
2022-11-23T15:04:09.638Z,3.95
2022-11-23T15:06:45.904Z,8.02
2022-11-23T15:09:22.412Z,11.65
2022-11-23T15:11:50.279Z,20.17
2022-11-23T15:14:20.834Z,10.63
2022-11-23T15:16:49.329Z,25.70
2022-11-23T15:19:27.325Z,14.20
2022-11-23T15:21:55.417Z,7.63
2022-11-23T15:24:26.792Z,6.30
2022-11-23T15:26:58.309Z,13.07
2022-11-23T15:29:31.651Z,6.05
2022-11-23T15:32:28.638Z,5.35
2022-11-23T15:34:49.365Z,5.45
2022-11-23T15:37:18.690Z,7.03
2022-11-23T15:39:48.704Z,10.80
2022-11-23T15:42:19.250Z,7.78
2022-11-23T15:44:51.552Z,11.25
2022-11-23T15:47:27.277Z,5.75
2022-11-23T15:50:01.620Z,6.68
2022-11-23T15:52:32.252Z,9.70
2022-11-23T15:55:09.266Z,10.50
2022-11-23T15:57:39.818Z,8.77
2022-11-23T16:00:09.380Z,7.45
2022-11-23T16:02:40.193Z,9.82
2022-11-23T16:05:14.770Z,8.20
2022-11-23T16:07:54.039Z,6.00
2022-11-23T16:10:25.913Z,8.27
2022-11-23T16:12:55.639Z,7.97
2022-11-23T16:15:42.009Z,10.40
2022-11-23T16:18:22.864Z,7.10
2022-11-23T16:20:53.210Z,12.07
2022-11-23T16:23:23.345Z,17.30
2022-11-23T16:25:59.361Z,45.88
2022-11-23T16:28:30.926Z,13.05
2022-11-23T16:30:59.461Z,11.02
2022-11-23T16:33:27.400Z,8.68
2022-11-23T16:35:55.515Z,9.35
2022-11-23T16:38:23.686Z,13.55
2022-11-23T16:40:51.740Z,6.82
2022-11-23T16:43:20.829Z,10.18
2022-11-23T16:45:51.674Z,9.57
2022-11-23T16:48:39.973Z,5.53
2022-11-23T16:51:10.723Z,9.35
2022-11-23T16:54:11.330Z,6.18
2022-11-23T16:56:28.226Z,8.85
2022-11-23T16:58:57.720Z,11.77
2022-11-23T17:01:27.542Z,8.88
2022-11-23T17:03:55.419Z,8.13
2022-11-23T17:06:23.895Z,5.63
2022-11-23T17:09:00.463Z,7.05
2022-11-23T17:11:36.126Z,7.25
2022-11-23T17:14:05.832Z,7.07
2022-11-23T17:16:34.326Z,11.07
2022-11-23T17:19:02.357Z,19.80
2022-11-23T17:21:30.251Z,9.15
2022-11-23T17:23:58.059Z,7.97
2022-11-23T17:26:35.442Z,12.32
2022-11-23T17:29:06.630Z,14.55
2022-11-23T17:31:34.888Z,14.45
2022-11-23T17:34:02.772Z,13.55
2022-11-23T17:36:31.821Z,16.52
2022-11-23T17:38:59.716Z,17.33
2022-11-23T17:41:27.552Z,10.18
2022-11-23T17:43:55.795Z,13.73
2022-11-23T17:46:25.487Z,10.35
2022-11-23T17:48:57.236Z,43.47
2022-11-23T17:51:25.209Z,74.45
2022-11-23T17:53:53.022Z,27.85
2022-11-23T17:56:23.157Z,23.38
2022-11-23T17:58:52.384Z,32.95
2022-11-23T18:01:22.499Z,17.10
2022-11-23T18:03:51.918Z,35.33
2022-11-23T18:06:23.029Z,12.05
2022-11-23T18:08:52.423Z,11.25
2022-11-23T18:11:21.307Z,10.20
2022-11-23T18:13:50.469Z,13.55
2022-11-23T18:16:19.655Z,15.15
2022-11-23T18:18:47.742Z,12.80
2022-11-23T18:21:17.061Z,11.80
2022-11-23T18:23:45.494Z,9.57
2022-11-23T18:26:17.583Z,11.85
2022-11-23T18:28:45.775Z,11.85
2022-11-23T18:31:13.781Z,12.20
2022-11-23T18:33:41.791Z,12.10
2022-11-23T18:36:10.581Z,11.93
2022-11-23T18:38:40.562Z,10.25
2022-11-23T18:41:09.236Z,10.38
2022-11-23T18:43:37.333Z,8.63
2022-11-23T18:46:07.204Z,9.85
2022-11-23T18:48:35.344Z,9.80
2022-11-23T18:51:03.449Z,7.90
2022-11-23T18:53:31.661Z,8.23
2022-11-23T18:56:04.939Z,6.10
2022-11-23T18:58:33.796Z,7.07
2022-11-23T19:01:12.309Z,9.38
2022-11-23T19:03:41.849Z,11.52
2022-11-23T19:06:13.496Z,8.88
2022-11-23T19:08:41.954Z,10.02
2022-11-23T19:11:16.206Z,8.15
2022-11-23T19:13:44.792Z,9.13
2022-11-23T19:16:15.057Z,12.77
2022-11-23T19:18:43.435Z,10.48
2022-11-23T19:21:15.865Z,10.70
2022-11-23T19:23:43.951Z,10.60
2022-11-23T19:26:13.100Z,8.27
2022-11-23T19:28:44.582Z,8.07
2022-11-23T19:31:13.725Z,7.13
2022-11-23T19:33:41.748Z,8.85
2022-11-23T19:36:11.292Z,7.35
2022-11-23T19:38:39.192Z,10.40
2022-11-23T19:41:07.576Z,11.10
2022-11-23T19:43:36.948Z,11.73
2022-11-23T19:46:07.137Z,16.67
2022-11-23T19:48:35.895Z,13.50
2022-11-23T19:51:05.826Z,15.75
2022-11-23T19:53:35.735Z,13.13
2022-11-23T19:56:05.206Z,11.18
2022-11-23T19:58:34.767Z,12.23
2022-11-23T20:01:05.490Z,14.23
2022-11-23T20:03:35.825Z,11.00
2022-11-23T20:06:06.819Z,12.38
2022-11-23T20:08:34.945Z,13.38
2022-11-23T20:11:08.345Z,12.75
2022-11-23T20:13:36.668Z,11.38
2022-11-23T20:16:08.716Z,14.23
2022-11-23T20:18:36.600Z,14.10
2022-11-23T20:21:04.569Z,15.15
2022-11-23T20:23:32.765Z,16.60
2022-11-23T20:26:00.620Z,10.98
2022-11-23T20:28:28.597Z,11.77
2022-11-23T20:30:56.547Z,14.57
2022-11-23T20:33:25.695Z,16.38
2022-11-23T20:35:53.476Z,12.77
2022-11-23T20:38:21.537Z,9.57
2022-11-23T20:40:50.458Z,14.13
2022-11-23T20:43:18.199Z,12.68
2022-11-23T20:45:46.140Z,9.35
2022-11-23T20:48:13.927Z,9.63
2022-11-23T20:50:43.997Z,12.93
2022-11-23T20:53:11.806Z,14.63
2022-11-23T20:55:39.573Z,19.38
2022-11-23T20:58:08.131Z,15.68
2022-11-23T21:00:35.914Z,17.60
2022-11-23T21:03:03.694Z,16.15
2022-11-23T21:05:31.787Z,11.20
2022-11-23T21:08:01.721Z,16.20
2022-11-23T21:10:46.898Z,14.73
2022-11-23T21:13:48.511Z,13.13
2022-11-23T21:16:17.053Z,13.93
2022-11-23T21:18:44.801Z,12.18
2022-11-23T21:21:12.888Z,13.25
2022-11-23T21:23:42.137Z,16.65
2022-11-23T21:26:09.823Z,15.77
2022-11-23T21:28:37.807Z,17.15
2022-11-23T21:31:08.812Z,18.48
2022-11-23T21:33:37.556Z,20.00
2022-11-23T21:36:06.333Z,16.85
2022-11-23T21:38:36.137Z,17.67
2022-11-23T21:41:10.755Z,14.65
2022-11-23T21:43:38.994Z,19.95
2022-11-23T21:46:09.008Z,15.13
2022-11-23T21:48:37.680Z,11.00
2022-11-23T21:51:07.477Z,11.35
2022-11-23T21:53:35.869Z,15.55
2022-11-23T21:56:08.066Z,18.02
2022-11-23T21:58:36.622Z,15.07
2022-11-23T22:01:05.901Z,14.10
2022-11-23T22:03:37.764Z,20.58
2022-11-23T22:06:06.552Z,19.35
2022-11-23T22:08:34.953Z,21.55
2022-11-23T22:11:13.417Z,17.15
2022-11-23T22:13:43.544Z,15.85
2022-11-23T22:16:17.458Z,20.05
2022-11-23T22:18:46.166Z,22.25
2022-11-23T22:21:14.171Z,14.05
2022-11-23T22:23:42.603Z,15.13
2022-11-23T22:26:13.940Z,12.40
2022-11-23T22:28:43.781Z,16.38
2022-11-23T22:31:13.921Z,14.15
2022-11-23T22:33:42.921Z,14.35
2022-11-23T22:36:14.596Z,16.67
2022-11-23T22:38:43.075Z,16.70
2022-11-23T22:41:14.775Z,14.85
2022-11-23T22:43:43.194Z,14.65
2022-11-23T22:46:12.945Z,21.00
2022-11-23T22:48:42.620Z,16.60
2022-11-23T22:51:12.381Z,19.88
2022-11-23T22:53:44.586Z,15.20
2022-11-23T22:56:15.819Z,18.70
2022-11-23T22:58:44.570Z,18.35
2022-11-23T23:01:14.880Z,17.13
2022-11-23T23:03:43.531Z,24.42
2022-11-23T23:06:16.452Z,28.95
2022-11-23T23:08:45.536Z,22.30
2022-11-23T23:11:16.267Z,17.63
2022-11-23T23:13:44.155Z,14.70
2022-11-23T23:16:14.039Z,18.85
2022-11-23T23:18:42.788Z,18.48
2022-11-23T23:21:12.209Z,12.85
2022-11-23T23:23:41.307Z,15.88
2022-11-23T23:26:09.815Z,18.08
2022-11-23T23:28:40.063Z,15.05
2022-11-23T23:31:10.128Z,15.65
2022-11-23T23:33:38.265Z,13.88
2022-11-23T23:36:07.699Z,18.70
2022-11-23T23:38:36.660Z,17.23
2022-11-23T23:41:05.520Z,17.73
2022-11-23T23:43:34.029Z,16.70
2022-11-23T23:46:05.377Z,14.38
2022-11-23T23:48:34.950Z,14.95
2022-11-23T23:51:06.923Z,14.70
2022-11-23T23:53:34.912Z,18.27
2022-11-23T23:56:06.008Z,12.95
2022-11-23T23:58:34.103Z,20.98
